createdAt,value
2018-04-13T00:00:43.600Z,7.67
2018-04-13T00:03:11.097Z,9.47
2018-04-13T00:05:45.133Z,9.57
2018-04-13T00:08:12.645Z,9.47
2018-04-13T00:10:40.110Z,9.90
2018-04-13T00:13:07.603Z,8.90
2018-04-13T00:15:35.101Z,8.27
2018-04-13T00:18:02.775Z,8.30
2018-04-13T00:20:30.249Z,7.83
2018-04-13T00:22:58.510Z,7.60
2018-04-13T00:25:26.005Z,9.03
2018-04-13T00:27:54.260Z,8.00
2018-04-13T00:30:21.728Z,7.70
2018-04-13T00:32:49.988Z,7.77
2018-04-13T00:35:23.088Z,7.50
2018-04-13T00:37:57.144Z,6.93
2018-04-13T00:40:24.615Z,7.13
2018-04-13T00:42:52.120Z,6.53
2018-04-13T00:45:25.906Z,6.73
2018-04-13T00:47:53.431Z,7.43
2018-04-13T00:50:20.894Z,7.27
2018-04-13T00:53:13.096Z,7.90
2018-04-13T00:55:46.486Z,8.27
2018-04-13T00:58:19.897Z,7.97
2018-04-13T01:00:52.996Z,8.17
2018-04-13T01:03:20.510Z,7.53
2018-04-13T01:05:47.983Z,8.33
2018-04-13T01:08:15.479Z,8.40
2018-04-13T01:10:43.077Z,9.37
2018-04-13T01:13:10.558Z,9.43
2018-04-13T01:15:38.049Z,8.43
2018-04-13T01:18:11.501Z,8.50
2018-04-13T01:20:39.751Z,10.03
2018-04-13T01:23:07.272Z,9.43
2018-04-13T01:25:34.754Z,9.87
2018-04-13T01:28:02.256Z,10.20
2018-04-13T01:30:30.477Z,10.23
2018-04-13T01:32:57.982Z,9.23
2018-04-13T01:35:32.058Z,9.40
2018-04-13T01:38:05.563Z,8.40
2018-04-13T01:40:33.029Z,8.07
2018-04-13T01:43:00.527Z,9.23
2018-04-13T01:45:28.767Z,8.83
2018-04-13T01:47:56.264Z,9.90
2018-04-13T01:50:29.530Z,10.77
2018-04-13T01:53:02.976Z,9.83
2018-04-13T01:55:30.450Z,9.17
2018-04-13T01:57:57.944Z,9.67
2018-04-13T02:00:26.180Z,9.67
2018-04-13T02:02:53.741Z,9.70
2018-04-13T02:05:21.223Z,9.60
2018-04-13T02:07:49.100Z,10.63
2018-04-13T02:10:22.555Z,11.80
2018-04-13T02:12:55.873Z,10.17
2018-04-13T02:15:23.344Z,10.27
2018-04-13T02:17:50.860Z,11.63
2018-04-13T02:20:24.258Z,10.67
2018-04-13T02:22:51.761Z,11.80
2018-04-13T02:25:19.237Z,11.10
2018-04-13T02:27:47.527Z,10.93
2018-04-13T02:30:14.991Z,13.50
2018-04-13T02:32:42.482Z,13.47
2018-04-13T02:35:15.777Z,13.27
2018-04-13T02:37:55.130Z,12.80
2018-04-13T02:40:22.610Z,16.77
2018-04-13T02:42:50.880Z,14.73
2018-04-13T02:45:24.255Z,13.97
2018-04-13T02:47:51.745Z,17.53
2018-04-13T02:50:20.011Z,16.23
2018-04-13T02:52:54.183Z,14.57
2018-04-13T02:55:21.674Z,14.57
2018-04-13T02:57:49.171Z,13.90
2018-04-13T03:00:16.663Z,12.43
2018-04-13T03:02:44.157Z,12.43
2018-04-13T03:05:18.139Z,16.17
2018-04-13T03:07:51.384Z,15.50
2018-04-13T03:10:18.846Z,16.50
2018-04-13T03:12:46.363Z,20.10
2018-04-13T03:15:19.547Z,17.30
2018-04-13T03:17:52.944Z,17.07
2018-04-13T03:20:20.444Z,15.77
2018-04-13T03:22:47.937Z,13.60
2018-04-13T03:25:15.421Z,13.57
2018-04-13T03:27:42.924Z,13.43
2018-04-13T03:30:10.420Z,11.50
2018-04-13T03:32:37.918Z,11.77
2018-04-13T03:35:06.154Z,12.57
2018-04-13T03:37:39.589Z,11.10
2018-04-13T03:40:07.818Z,11.80
2018-04-13T03:42:35.323Z,11.10
2018-04-13T03:45:09.335Z,11.27
2018-04-13T03:47:43.625Z,11.83
2018-04-13T03:50:11.110Z,11.47
2018-04-13T03:52:39.399Z,11.87
2018-04-13T03:55:06.876Z,12.37
2018-04-13T03:57:34.362Z,12.63
2018-04-13T04:00:01.822Z,13.87
2018-04-13T04:02:35.118Z,12.67
2018-04-13T04:05:08.377Z,14.10
2018-04-13T04:07:35.887Z,12.70
2018-04-13T04:10:09.346Z,13.53
2018-04-13T04:12:36.875Z,15.37
2018-04-13T04:15:04.343Z,15.57
2018-04-13T04:17:37.783Z,16.20
2018-04-13T04:20:17.037Z,18.17
2018-04-13T04:22:56.454Z,17.93
2018-04-13T04:25:50.649Z,17.57
2018-04-13T04:28:29.936Z,16.60
2018-04-13T04:31:03.330Z,15.17
2018-04-13T04:33:36.672Z,13.70
2018-04-13T04:36:04.169Z,18.77
2018-04-13T04:38:31.673Z,19.57
2018-04-13T04:41:05.116Z,18.13
2018-04-13T04:43:38.400Z,17.73
2018-04-13T04:46:06.664Z,15.50
2018-04-13T04:48:40.528Z,15.20
2018-04-13T04:51:13.819Z,16.67
2018-04-13T04:53:41.355Z,18.63
2018-04-13T04:56:14.593Z,19.90
2018-04-13T04:58:42.096Z,19.03
2018-04-13T05:01:15.136Z,17.37
2018-04-13T05:03:48.497Z,22.23
2018-04-13T05:06:21.788Z,20.23
2018-04-13T05:08:49.510Z,19.20
2018-04-13T05:11:16.991Z,19.47
2018-04-13T05:13:45.235Z,20.60
2018-04-13T05:16:18.631Z,20.43
2018-04-13T05:18:46.110Z,18.17
2018-04-13T05:21:14.392Z,18.87
2018-04-13T05:23:42.625Z,18.57
2018-04-13T05:26:10.118Z,20.13
2018-04-13T05:28:44.234Z,19.53
2018-04-13T05:31:18.149Z,16.83
2018-04-13T05:33:46.400Z,17.53
2018-04-13T05:36:13.913Z,17.27
2018-04-13T05:38:41.408Z,18.70
2018-04-13T05:41:14.929Z,18.10
2018-04-13T05:43:43.212Z,17.20
2018-04-13T05:46:11.479Z,15.13
2018-04-13T05:48:38.957Z,14.53
2018-04-13T05:51:07.251Z,14.80
2018-04-13T05:53:34.767Z,18.03
2018-04-13T05:56:08.130Z,16.53
2018-04-13T05:58:35.606Z,17.73
2018-04-13T06:01:03.116Z,27.03
2018-04-13T06:03:30.594Z,16.47
2018-04-13T06:05:58.145Z,16.00
2018-04-13T06:08:25.635Z,15.97
2018-04-13T06:10:53.125Z,17.10
2018-04-13T06:13:21.403Z,14.30
2018-04-13T06:15:49.638Z,14.77
2018-04-13T06:18:17.132Z,14.10
2018-04-13T06:20:45.362Z,13.33
2018-04-13T06:23:12.878Z,13.33
2018-04-13T06:25:40.345Z,14.23
2018-04-13T06:28:07.837Z,12.10
2018-04-13T06:30:35.322Z,12.53
2018-04-13T06:33:02.845Z,15.03
2018-04-13T06:35:30.354Z,14.13
2018-04-13T06:38:04.424Z,13.97
2018-04-13T06:40:31.918Z,15.53
2018-04-13T06:43:04.950Z,16.27
2018-04-13T06:45:32.466Z,19.10
2018-04-13T06:48:06.324Z,20.07
2018-04-13T06:50:39.777Z,17.50
2018-04-13T06:53:08.018Z,24.57
2018-04-13T06:55:41.310Z,16.73
2018-04-13T06:58:08.783Z,16.77
2018-04-13T07:00:42.087Z,15.57
2018-04-13T07:03:15.427Z,20.03
2018-04-13T07:05:42.935Z,23.87
2018-04-13T07:08:16.144Z,22.70
2018-04-13T07:10:44.410Z,22.17
2018-04-13T07:13:17.689Z,20.37
2018-04-13T07:15:45.209Z,20.50
2018-04-13T07:18:12.703Z,19.97
2018-04-13T07:20:40.217Z,19.27
2018-04-13T07:23:07.720Z,19.60
2018-04-13T07:25:35.231Z,23.70
2018-04-13T07:28:02.727Z,17.67
2018-04-13T07:30:30.230Z,21.87
2018-04-13T07:33:04.412Z,23.53
2018-04-13T07:35:31.921Z,23.30
2018-04-13T07:37:59.790Z,30.17
2018-04-13T07:40:26.954Z,28.40
2018-04-13T07:43:00.047Z,27.37
2018-04-13T07:45:27.564Z,27.07
2018-04-13T07:47:55.052Z,24.50
2018-04-13T07:50:28.524Z,22.47
2018-04-13T07:53:02.637Z,28.73
2018-04-13T07:55:30.903Z,25.60
2018-04-13T07:58:04.968Z,21.20
2018-04-13T08:00:32.492Z,20.73
2018-04-13T08:02:59.975Z,18.70
2018-04-13T08:05:27.494Z,19.57
2018-04-13T08:07:55.732Z,18.27
2018-04-13T08:10:23.251Z,16.57
2018-04-13T08:13:02.512Z,18.57
2018-04-13T08:15:35.825Z,16.20
2018-04-13T08:18:09.191Z,16.67
2018-04-13T08:20:37.465Z,13.20
2018-04-13T08:23:05.719Z,15.33
2018-04-13T08:25:33.246Z,17.13
2018-04-13T08:28:00.743Z,12.57
2018-04-13T08:30:28.246Z,12.97
2018-04-13T08:33:01.753Z,14.37
2018-04-13T08:35:29.292Z,12.27
2018-04-13T08:37:57.792Z,12.03
2018-04-13T08:40:25.371Z,11.90
2018-04-13T08:42:53.673Z,10.97
2018-04-13T08:45:26.987Z,10.83
2018-04-13T08:48:00.241Z,12.63
2018-04-13T08:50:28.508Z,11.47
2018-04-13T08:52:56.093Z,14.97
2018-04-13T08:55:23.592Z,11.93
2018-04-13T08:57:57.102Z,13.07
2018-04-13T09:00:24.600Z,11.47
2018-04-13T09:02:52.872Z,10.33
2018-04-13T09:05:21.122Z,11.00
2018-04-13T09:07:54.627Z,11.50
2018-04-13T09:10:27.952Z,11.40
2018-04-13T09:13:01.415Z,12.23
2018-04-13T09:15:34.517Z,11.73
2018-04-13T09:18:08.579Z,13.20
2018-04-13T09:20:36.066Z,9.57
2018-04-13T09:23:09.372Z,11.53
2018-04-13T09:25:42.633Z,10.27
2018-04-13T09:28:15.756Z,11.07
2018-04-13T09:30:49.025Z,13.63
2018-04-13T09:33:16.578Z,11.17
2018-04-13T09:35:44.090Z,10.83
2018-04-13T09:38:11.599Z,10.67
2018-04-13T09:40:39.077Z,10.80
2018-04-13T09:43:24.329Z,10.53
2018-04-13T09:46:03.549Z,11.30
2018-04-13T09:48:31.098Z,13.43
2018-04-13T09:51:10.272Z,12.10
2018-04-13T09:53:37.889Z,11.23
2018-04-13T09:56:05.354Z,9.67
2018-04-13T09:58:32.830Z,10.33
2018-04-13T10:01:00.328Z,9.53
2018-04-13T10:03:44.301Z,9.00
2018-04-13T10:06:17.704Z,6.30
2018-04-13T10:08:45.369Z,8.03
2018-04-13T10:11:13.720Z,7.00
2018-04-13T10:13:47.801Z,8.00
2018-04-13T10:16:15.281Z,5.93
2018-04-13T10:18:43.564Z,7.40
2018-04-13T10:21:17.043Z,6.27
2018-04-13T10:23:44.535Z,6.20
2018-04-13T10:26:12.126Z,5.70
2018-04-13T10:28:39.633Z,6.23
2018-04-13T10:31:07.878Z,6.17
2018-04-13T10:33:35.433Z,6.03
2018-04-13T10:36:08.865Z,5.07
2018-04-13T10:38:42.961Z,9.60
2018-04-13T10:41:10.434Z,5.90
2018-04-13T10:43:38.697Z,6.07
2018-04-13T10:46:12.797Z,4.93
2018-04-13T10:48:52.085Z,5.77
2018-04-13T10:51:19.564Z,4.10
2018-04-13T10:53:52.878Z,6.30
2018-04-13T10:56:32.160Z,4.33
2018-04-13T10:58:59.709Z,5.40
2018-04-13T11:01:32.879Z,6.60
2018-04-13T11:04:00.402Z,7.30
2018-04-13T11:06:33.745Z,8.10
2018-04-13T11:09:07.759Z,4.20
2018-04-13T11:11:36.002Z,4.33
2018-04-13T11:14:03.519Z,4.40
2018-04-13T11:16:30.992Z,6.43
2018-04-13T11:18:58.513Z,4.40
2018-04-13T11:21:32.498Z,4.53
2018-04-13T11:24:00.021Z,4.13
2018-04-13T11:26:39.234Z,4.03
2018-04-13T11:29:06.754Z,2.87
2018-04-13T11:31:39.892Z,4.10
2018-04-13T11:34:13.183Z,3.00
2018-04-13T11:36:40.669Z,3.67
2018-04-13T11:39:08.154Z,2.53
2018-04-13T11:41:42.149Z,2.70
2018-04-13T11:44:09.665Z,2.90
2018-04-13T11:46:37.149Z,2.27
2018-04-13T11:49:22.219Z,2.10
2018-04-13T11:51:55.644Z,2.73
2018-04-13T11:54:23.947Z,2.63
2018-04-13T11:57:03.033Z,2.33
2018-04-13T11:59:30.541Z,1.77
2018-04-13T12:01:58.013Z,2.03
2018-04-13T12:04:25.534Z,2.50
2018-04-13T12:06:59.682Z,1.50
2018-04-13T12:09:27.193Z,1.50
2018-04-13T12:11:54.683Z,1.40
2018-04-13T12:14:22.184Z,1.97
2018-04-13T12:16:49.685Z,1.73
2018-04-13T12:19:17.945Z,1.90
2018-04-13T12:21:46.243Z,1.10
2018-04-13T12:24:14.514Z,1.23
2018-04-13T12:26:42.795Z,1.23
2018-04-13T12:29:11.040Z,1.87
2018-04-13T12:31:38.549Z,1.23
2018-04-13T12:34:06.047Z,1.40
2018-04-13T12:36:33.559Z,1.17
2018-04-13T12:39:01.062Z,1.40
2018-04-13T12:41:28.563Z,1.60
2018-04-13T12:43:56.803Z,1.20
2018-04-13T12:46:24.306Z,0.90
2018-04-13T12:48:51.802Z,2.23
2018-04-13T12:51:19.317Z,1.70
2018-04-13T12:53:48.789Z,1.43
2018-04-13T12:56:16.432Z,2.10
2018-04-13T12:58:44.631Z,2.37
2018-04-13T13:01:12.291Z,2.20
2018-04-13T13:03:49.817Z,1.60
2018-04-13T13:06:17.332Z,1.70
2018-04-13T13:08:44.849Z,2.23
2018-04-13T13:11:13.111Z,2.43
2018-04-13T13:13:40.595Z,3.77
2018-04-13T13:16:08.150Z,3.10
2018-04-13T13:18:35.792Z,2.03
2018-04-13T13:21:03.957Z,1.30
2018-04-13T13:23:32.232Z,3.27
2018-04-13T13:25:59.750Z,3.70
2018-04-13T13:28:27.269Z,1.57
2018-04-13T13:30:54.739Z,1.40
2018-04-13T13:33:22.266Z,1.67
2018-04-13T13:35:49.762Z,0.80
2018-04-13T13:38:17.233Z,0.80
2018-04-13T13:40:44.700Z,2.67
2018-04-13T13:43:12.186Z,0.97
2018-04-13T13:45:42.375Z,1.37
2018-04-13T13:48:09.901Z,0.93
2018-04-13T13:50:37.359Z,1.67
2018-04-13T13:53:04.881Z,0.80
2018-04-13T13:55:33.105Z,2.50
2018-04-13T13:58:00.611Z,1.13
2018-04-13T14:00:28.847Z,1.20
2018-04-13T14:02:56.358Z,1.40
2018-04-13T14:05:23.869Z,1.80
2018-04-13T14:07:51.358Z,2.07
2018-04-13T14:10:19.635Z,1.37
2018-04-13T14:12:47.933Z,1.00
2018-04-13T14:15:15.411Z,0.63
2018-04-13T14:17:42.897Z,0.63
2018-04-13T14:20:10.373Z,0.87
2018-04-13T14:22:37.919Z,0.97
2018-04-13T14:25:05.348Z,1.27
2018-04-13T14:27:32.852Z,0.67
2018-04-13T14:30:00.342Z,0.83
2018-04-13T14:32:27.853Z,1.27
2018-04-13T14:34:55.326Z,1.00
2018-04-13T14:37:22.827Z,0.80
2018-04-13T14:39:50.296Z,0.93
2018-04-13T14:42:18.005Z,0.70
2018-04-13T14:44:45.486Z,1.00
2018-04-13T14:47:12.984Z,1.93
2018-04-13T14:49:40.479Z,1.20
2018-04-13T14:52:07.973Z,0.70
2018-04-13T14:54:35.451Z,0.97
2018-04-13T14:57:02.970Z,1.23
2018-04-13T14:59:31.222Z,1.23
2018-04-13T15:01:58.767Z,1.30
2018-04-13T15:04:26.256Z,1.00
2018-04-13T15:06:55.292Z,1.90
2018-04-13T15:09:22.781Z,1.00
2018-04-13T15:11:50.404Z,1.00
2018-04-13T15:14:17.907Z,1.00
2018-04-13T15:16:45.631Z,1.40
2018-04-13T15:19:13.153Z,1.27
2018-04-13T15:21:41.984Z,1.30
2018-04-13T15:24:09.448Z,1.30
2018-04-13T15:26:36.946Z,1.00
2018-04-13T15:29:05.321Z,0.93
2018-04-13T15:31:32.823Z,1.00
2018-04-13T15:34:00.352Z,1.83
2018-04-13T15:36:28.589Z,1.40
2018-04-13T15:38:56.082Z,1.40
2018-04-13T15:41:24.391Z,1.93
2018-04-13T15:43:51.886Z,2.70
2018-04-13T15:46:19.359Z,1.93
2018-04-13T15:48:46.873Z,1.60
2018-04-13T15:51:14.432Z,2.00
2018-04-13T15:53:41.939Z,2.57
2018-04-13T15:56:10.187Z,1.93
2018-04-13T15:58:37.713Z,1.73
2018-04-13T16:01:05.209Z,1.80
2018-04-13T16:03:32.704Z,1.47
2018-04-13T16:06:00.184Z,1.33
2018-04-13T16:08:27.808Z,2.83
2018-04-13T16:10:55.274Z,1.60
2018-04-13T16:13:23.531Z,1.20
2018-04-13T16:15:51.057Z,2.77
2018-04-13T16:18:18.529Z,1.17
2018-04-13T16:20:46.031Z,1.97
2018-04-13T16:23:14.295Z,1.53
2018-04-13T16:25:42.562Z,1.57
2018-04-13T16:28:10.027Z,1.43
2018-04-13T16:30:38.336Z,1.43
2018-04-13T16:33:05.812Z,2.70
2018-04-13T16:35:33.365Z,1.57
2018-04-13T16:38:00.879Z,1.60
2018-04-13T16:40:29.195Z,1.63
2018-04-13T16:42:56.693Z,1.20
2018-04-13T16:45:24.992Z,9.27
2018-04-13T16:47:53.247Z,5.10
2018-04-13T16:50:20.739Z,3.97
2018-04-13T16:52:48.977Z,2.57
2018-04-13T16:55:16.496Z,1.50
2018-04-13T16:57:43.973Z,1.70
2018-04-13T17:00:11.471Z,2.33
2018-04-13T17:02:39.735Z,2.83
2018-04-13T17:05:07.315Z,3.73
2018-04-13T17:07:35.564Z,2.90
2018-04-13T17:10:03.050Z,2.50
2018-04-13T17:12:30.581Z,2.57
2018-04-13T17:14:58.091Z,1.47
2018-04-13T17:17:25.568Z,1.80
2018-04-13T17:19:53.078Z,2.20
2018-04-13T17:22:21.360Z,3.73
2018-04-13T17:24:49.640Z,4.37
2018-04-13T17:27:17.123Z,2.90
2018-04-13T17:29:44.615Z,3.80
2018-04-13T17:32:12.095Z,1.90
2018-04-13T17:34:39.603Z,4.03
2018-04-13T17:37:07.093Z,6.33
2018-04-13T17:39:34.624Z,3.80
2018-04-13T17:42:02.110Z,5.27
2018-04-13T17:44:29.608Z,5.17
2018-04-13T17:46:57.859Z,4.87
2018-04-13T17:49:25.372Z,4.87
2018-04-13T17:51:52.835Z,7.43
2018-04-13T17:54:20.341Z,4.53
2018-04-13T17:56:47.812Z,4.27
2018-04-13T17:59:16.258Z,3.77
2018-04-13T18:01:43.751Z,5.23
2018-04-13T18:04:12.009Z,4.67
2018-04-13T18:06:40.324Z,10.73
2018-04-13T18:09:08.549Z,13.63
2018-04-13T18:11:36.038Z,6.77
2018-04-13T18:14:04.290Z,7.93
2018-04-13T18:16:31.800Z,5.00
2018-04-13T18:18:59.292Z,7.90
2018-04-13T18:21:26.816Z,12.30
2018-04-13T18:23:54.291Z,69.13
2018-04-13T18:26:22.735Z,29.13
2018-04-13T18:28:50.214Z,33.57
2018-04-13T18:31:17.732Z,30.77
2018-04-13T18:33:45.969Z,55.63
2018-04-13T18:36:14.389Z,40.57
2018-04-13T18:38:42.635Z,12.50
2018-04-13T18:41:10.167Z,9.13
2018-04-13T18:43:37.648Z,6.40
2018-04-13T18:46:05.187Z,7.90
2018-04-13T18:48:32.686Z,17.87
2018-04-13T18:51:00.954Z,21.07
2018-04-13T18:53:28.436Z,21.00
2018-04-13T18:55:56.739Z,18.60
2018-04-13T18:58:24.221Z,23.13
2018-04-13T19:00:51.722Z,19.20
2018-04-13T19:03:19.982Z,15.00
2018-04-13T19:05:47.449Z,10.10
2018-04-13T19:08:15.726Z,6.37
2018-04-13T19:10:43.328Z,7.77
2018-04-13T19:13:10.837Z,11.73
2018-04-13T19:15:38.314Z,10.63
2018-04-13T19:18:06.656Z,10.57
2018-04-13T19:20:34.615Z,9.07
2018-04-13T19:23:02.106Z,6.27
2018-04-13T19:25:29.590Z,7.87
2018-04-13T19:27:57.147Z,5.73
2018-04-13T19:30:24.638Z,5.43
2018-04-13T19:32:52.135Z,5.67
2018-04-13T19:35:20.378Z,5.13
2018-04-13T19:37:47.870Z,5.03
2018-04-13T19:40:15.785Z,4.87
2018-04-13T19:42:43.316Z,3.80
2018-04-13T19:45:10.807Z,4.53
2018-04-13T19:47:38.310Z,6.17
2018-04-13T19:50:05.817Z,5.57
2018-04-13T19:52:33.320Z,4.27
2018-04-13T19:55:00.818Z,5.17
2018-04-13T19:57:28.317Z,4.93
2018-04-13T19:59:55.813Z,5.20
2018-04-13T20:02:25.024Z,6.13
2018-04-13T20:04:52.917Z,5.70
2018-04-13T20:07:20.423Z,6.67
2018-04-13T20:09:47.870Z,8.87
2018-04-13T20:12:15.458Z,8.53
2018-04-13T20:14:43.765Z,9.13
2018-04-13T20:17:11.266Z,8.93
2018-04-13T20:19:38.756Z,28.33
2018-04-13T20:22:06.287Z,51.13
2018-04-13T20:24:33.763Z,43.70
2018-04-13T20:27:02.041Z,50.77
2018-04-13T20:29:30.290Z,32.77
2018-04-13T20:31:57.795Z,20.87
2018-04-13T20:34:25.263Z,16.13
2018-04-13T20:36:52.757Z,23.53
2018-04-13T20:39:20.273Z,22.07
2018-04-13T20:41:47.743Z,14.70
2018-04-13T20:44:15.257Z,21.53
2018-04-13T20:46:42.807Z,17.20
2018-04-13T20:49:10.324Z,17.60
2018-04-13T20:51:37.820Z,17.67
2018-04-13T20:54:06.123Z,16.63
2018-04-13T20:56:34.416Z,15.87
2018-04-13T20:59:01.894Z,15.93
2018-04-13T21:01:29.406Z,15.67
2018-04-13T21:03:57.647Z,18.37
2018-04-13T21:06:25.149Z,22.00
2018-04-13T21:08:52.641Z,20.17
2018-04-13T21:11:20.141Z,18.80
2018-04-13T21:13:47.635Z,21.40
2018-04-13T21:16:15.165Z,18.03
2018-04-13T21:18:43.411Z,18.83
2018-04-13T21:21:11.043Z,14.07
2018-04-13T21:23:38.518Z,13.00
2018-04-13T21:26:05.982Z,12.97
2018-04-13T21:28:33.487Z,9.00
2018-04-13T21:31:01.764Z,8.73
2018-04-13T21:33:29.252Z,9.37
2018-04-13T21:35:56.716Z,12.03
2018-04-13T21:38:24.241Z,10.97
2018-04-13T21:40:52.521Z,20.63
2018-04-13T21:43:20.790Z,21.63
2018-04-13T21:45:49.040Z,11.40
2018-04-13T21:48:16.551Z,12.17
2018-04-13T21:50:44.046Z,10.50
2018-04-13T21:53:11.543Z,11.67
2018-04-13T21:55:39.797Z,9.60
2018-04-13T21:58:07.326Z,7.90
2018-04-13T22:00:34.796Z,9.07
2018-04-13T22:03:02.292Z,8.23
2018-04-13T22:05:30.539Z,11.17
2018-04-13T22:07:58.028Z,11.53
2018-04-13T22:10:26.266Z,9.03
2018-04-13T22:13:05.773Z,10.00
2018-04-13T22:15:33.239Z,8.60
2018-04-13T22:18:00.725Z,9.20
2018-04-13T22:20:28.232Z,11.20
2018-04-13T22:22:55.758Z,12.13
2018-04-13T22:25:24.003Z,12.07
2018-04-13T22:27:51.463Z,10.13
2018-04-13T22:30:18.973Z,10.83
2018-04-13T22:32:46.545Z,13.90
2018-04-13T22:35:14.060Z,21.53
2018-04-13T22:37:41.545Z,15.90
2018-04-13T22:40:09.057Z,12.30
2018-04-13T22:42:36.544Z,10.77
2018-04-13T22:45:04.813Z,8.80
2018-04-13T22:47:32.276Z,6.80
2018-04-13T22:49:59.804Z,5.97
2018-04-13T22:52:27.280Z,6.73
2018-04-13T22:54:54.800Z,11.13
2018-04-13T22:57:22.279Z,11.83
2018-04-13T22:59:49.773Z,10.97
2018-04-13T23:02:18.032Z,10.77
2018-04-13T23:04:45.543Z,10.33
2018-04-13T23:07:13.043Z,15.37
2018-04-13T23:09:40.538Z,11.13
2018-04-13T23:12:08.031Z,13.63
2018-04-13T23:14:35.544Z,10.40
2018-04-13T23:17:03.788Z,9.70
2018-04-13T23:19:31.259Z,10.43
2018-04-13T23:21:58.746Z,8.10
2018-04-13T23:24:26.211Z,8.20
2018-04-13T23:26:53.719Z,10.83
2018-04-13T23:29:21.205Z,9.27
2018-04-13T23:31:49.487Z,9.53
2018-04-13T23:34:17.055Z,11.13
2018-04-13T23:36:44.602Z,11.13
2018-04-13T23:39:12.817Z,9.77
2018-04-13T23:41:40.323Z,8.93
2018-04-13T23:44:08.567Z,8.47
2018-04-13T23:46:36.065Z,8.73
2018-04-13T23:49:04.301Z,7.13
2018-04-13T23:51:31.783Z,5.50
2018-04-13T23:53:59.285Z,9.80
2018-04-13T23:56:26.783Z,6.40
2018-04-13T23:58:54.282Z,5.60
